Time;durP1;ratioP1;P1;durP2;ratioP2;P2;SDS_P1;SDS_P2;PMS_P1;PMS_P2;Temp;Humidity;BMP_temperature;BMP_pressure;BME280_temperature;BME280_humidity;BME280_pressure;Samples;Min_cycle;Max_cycle;Signal;HPM_P1;HPM_P2
2022/01/29 07:57:05;;;;;;;19.00;9.63;;;;;;;0.46;100.00;100424.31;5071016;27;20409;-83
2022/01/29 07:59:32;;;;;;;22.27;10.25;;;;;;;0.51;100.00;100416.88;5070835;28;20052;-83
2022/01/29 08:01:59;;;;;;;30.15;12.50;;;;;;;0.68;100.00;100423.91;5069694;28;20041;-83
2022/01/29 08:04:25;;;;;;;19.50;11.15;;;;;;;0.75;100.00;100416.38;5069597;28;20096;-83
2022/01/29 08:06:52;;;;;;;23.40;10.00;;;;;;;0.88;100.00;100428.06;5070703;28;20076;-83
2022/01/29 08:09:19;;;;;;;17.80;9.70;;;;;;;0.99;100.00;100418.53;5069447;28;20369;-83
2022/01/29 08:11:46;;;;;;;28.60;12.23;;;;;;;0.97;100.00;100404.38;5069410;28;20124;-83
2022/01/29 08:14:14;;;;;;;24.95;12.13;;;;;;;1.15;100.00;100415.78;5069412;28;20373;-83
2022/01/29 08:16:52;;;;;;;27.85;12.48;;;;;;;1.17;100.00;100412.03;5084733;28;20135;-83
2022/01/29 08:19:18;;;;;;;29.38;13.45;;;;;;;1.12;100.00;100390.06;5089719;28;20048;-83
2022/01/29 08:21:45;;;;;;;26.77;11.70;;;;;;;1.19;100.00;100390.53;5089308;28;20048;-83
2022/01/29 08:24:12;;;;;;;26.23;12.65;;;;;;;1.25;100.00;100406.25;5076543;28;20102;-83
2022/01/29 08:26:38;;;;;;;23.50;13.73;;;;;;;1.45;100.00;100396.94;5069058;28;20469;-82
2022/01/29 08:29:05;;;;;;;21.63;11.93;;;;;;;1.50;100.00;100388.63;5068934;28;20508;-83
2022/01/29 08:31:33;;;;;;;18.77;10.02;;;;;;;1.68;100.00;100403.53;5069130;28;20044;-83
2022/01/29 08:34:01;;;;;;;17.17;10.48;;;;;;;1.67;100.00;100407.19;5068826;28;20463;-83
2022/01/29 08:36:27;;;;;;;18.80;10.38;;;;;;;1.67;100.00;100406.31;5082423;28;20046;-83
2022/01/29 08:38:54;;;;;;;19.27;10.20;;;;;;;1.71;100.00;100402.47;5089140;28;20105;-83
2022/01/29 08:41:20;;;;;;;19.08;10.15;;;;;;;1.68;100.00;100402.69;5068188;28;20135;-83
2022/01/29 08:43:48;;;;;;;22.80;11.05;;;;;;;1.67;100.00;100395.59;5069036;28;20055;-83
2022/01/29 08:46:15;;;;;;;21.73;11.52;;;;;;;1.65;100.00;100392.16;5069830;28;20669;-83
2022/01/29 08:48:43;;;;;;;23.02;11.27;;;;;;;1.74;100.00;100394.25;5069782;28;20047;-83
2022/01/29 08:51:10;;;;;;;23.38;12.23;;;;;;;1.72;100.00;100394.34;5069722;28;20559;-83
2022/01/29 08:53:37;;;;;;;21.65;10.60;;;;;;;1.71;100.00;100386.41;5068319;28;20132;-83
2022/01/29 08:56:04;;;;;;;29.38;11.18;;;;;;;1.73;100.00;100382.66;5077438;28;20044;-83
2022/01/29 08:58:31;;;;;;;21.58;11.77;;;;;;;1.77;100.00;100368.06;5079322;28;20053;-83
2022/01/29 09:00:58;;;;;;;18.38;10.30;;;;;;;1.89;100.00;100378.97;5068324;28;20474;-83
2022/01/29 09:03:25;;;;;;;21.35;10.35;;;;;;;1.77;100.00;100376.13;5068314;28;20465;-83
2022/01/29 09:05:53;;;;;;;19.73;10.45;;;;;;;1.83;100.00;100376.72;5066947;28;20044;-83
2022/01/29 09:08:19;;;;;;;18.48;10.20;;;;;;;1.93;100.00;100376.00;5055389;28;20045;-83
2022/01/29 09:10:46;;;;;;;23.23;10.82;;;;;;;2.10;100.00;100379.41;5055512;28;20067;-83
2022/01/29 09:13:14;;;;;;;13.02;7.60;;;;;;;2.08;100.00;100360.72;5060011;28;20041;-83
2022/01/29 09:15:41;;;;;;;10.35;6.90;;;;;;;2.22;100.00;100375.91;5074977;28;20131;-83
2022/01/29 09:18:07;;;;;;;11.05;6.45;;;;;;;2.29;100.00;100369.19;5073474;28;20412;-83
2022/01/29 09:20:36;;;;;;;12.23;6.63;;;;;;;2.50;100.00;100371.41;5053510;28;20419;-83
2022/01/29 09:23:04;;;;;;;13.93;6.43;;;;;;;2.37;100.00;100360.59;5057908;28;20041;-83
2022/01/29 09:25:32;;;;;;;12.57;7.03;;;;;;;2.45;100.00;100352.91;5074925;28;20055;-83
2022/01/29 09:27:58;;;;;;;12.45;6.18;;;;;;;2.63;100.00;100369.59;5074602;28;20551;-83
2022/01/29 09:30:26;;;;;;;11.98;6.50;;;;;;;2.55;100.00;100361.19;5074937;28;20071;-83
2022/01/29 09:32:52;;;;;;;12.48;6.03;;;;;;;2.66;100.00;100371.19;5069478;28;20396;-83
2022/01/29 09:35:19;;;;;;;12.02;6.03;;;;;;;2.77;100.00;100375.81;5074510;28;20045;-84
2022/01/29 09:37:50;;;;;;;10.13;5.82;;;;;;;2.66;100.00;100344.34;5053420;28;20049;-87
2022/01/29 09:40:18;;;;;;;13.40;5.55;;;;;;;2.83;100.00;100362.84;5055677;28;20068;-87
2022/01/29 09:42:46;;;;;;;13.68;5.63;;;;;;;2.92;100.00;100364.06;5069570;28;20067;-87
2022/01/29 09:45:14;;;;;;;13.27;5.55;;;;;;;2.83;100.00;100356.59;5070332;28;20075;-82
2022/01/29 09:47:43;;;;;;;10.80;4.88;;;;;;;2.94;100.00;100355.88;5056628;28;20075;-83
2022/01/29 09:50:11;;;;;;;7.68;4.78;;;;;;;2.97;100.00;100356.50;5054277;28;20049;-83
2022/01/29 09:52:37;;;;;;;12.18;5.18;;;;;;;2.96;100.00;100348.56;5053622;28;20059;-83
2022/01/29 09:55:06;;;;;;;9.35;4.90;;;;;;;3.07;100.00;100356.75;5053736;28;20056;-83
2022/01/29 09:57:34;;;;;;;9.57;4.45;;;;;;;3.11;100.00;100357.38;5054263;28;20481;-83
2022/01/29 10:00:01;;;;;;;8.57;4.65;;;;;;;3.05;100.00;100342.53;5052985;28;20045;-83
2022/01/29 10:02:28;;;;;;;8.73;5.20;;;;;;;3.10;100.00;100353.84;5054066;28;20040;-83
2022/01/29 10:04:56;;;;;;;6.85;4.47;;;;;;;3.09;100.00;100353.97;5053600;28;20053;-83
2022/01/29 10:07:25;;;;;;;8.65;4.18;;;;;;;3.00;98.78;100340.19;5053986;28;20048;-83
2022/01/29 10:09:52;;;;;;;7.55;4.50;;;;;;;3.08;100.00;100358.44;5054087;28;20049;-83
2022/01/29 10:12:22;;;;;;;11.70;5.40;;;;;;;3.09;99.02;100346.75;5066572;28;20044;-83
2022/01/29 10:14:53;;;;;;;5.75;3.72;;;;;;;3.17;100.00;100346.19;5074256;28;20044;-82
2022/01/29 10:17:39;;;;;;;15.93;4.68;;;;;;;3.19;99.29;100345.13;5054878;28;20404;-82
2022/01/29 10:20:15;;;;;;;10.63;3.70;;;;;;;3.24;99.11;100339.44;5052594;28;20053;-83
2022/01/29 10:22:44;;;;;;;12.77;4.03;;;;;;;3.25;99.40;100332.22;5055296;28;20052;-82
2022/01/29 10:25:13;;;;;;;6.88;3.67;;;;;;;3.28;98.01;100321.25;5054353;28;20049;-83
2022/01/29 10:27:40;;;;;;;7.53;4.00;;;;;;;3.35;98.14;100339.50;5054994;28;20053;-83
2022/01/29 10:30:11;;;;;;;13.60;5.07;;;;;;;3.41;97.41;100318.53;5054874;28;20053;-83
2022/01/29 10:32:38;;;;;;;7.72;4.20;;;;;;;3.62;97.14;100325.03;5054446;28;20052;-83
2022/01/29 10:35:06;;;;;;;8.18;4.13;;;;;;;3.57;97.41;100332.59;5053712;28;20213;-82
2022/01/29 10:37:32;;;;;;;8.18;3.78;;;;;;;3.51;96.96;100306.16;5054495;28;20041;-83
2022/01/29 10:40:01;;;;;;;5.55;3.65;;;;;;;3.67;98.74;100322.00;5054517;28;20052;-83
2022/01/29 10:42:30;;;;;;;9.23;3.92;;;;;;;3.69;97.52;100320.09;5054703;28;20048;-83
2022/01/29 10:45:01;;;;;;;7.78;3.50;;;;;;;3.76;98.50;100323.19;5053983;28;20051;-83
2022/01/29 10:47:30;;;;;;;6.63;3.72;;;;;;;3.77;97.68;100316.84;5054573;28;20045;-83
2022/01/29 10:49:59;;;;;;;6.78;3.50;;;;;;;3.83;98.54;100316.38;5054399;28;20055;-83
2022/01/29 10:52:29;;;;;;;10.10;3.30;;;;;;;3.81;98.64;100304.84;5062703;28;20045;-82
2022/01/29 10:55:00;;;;;;;7.65;3.67;;;;;;;3.97;100.00;100307.28;5053206;28;20057;-82
2022/01/29 10:57:35;;;;;;;6.03;2.85;;;;;;;3.93;100.00;100314.72;5049953;28;20047;-82
2022/01/29 11:00:05;;;;;;;5.75;3.35;;;;;;;4.02;100.00;100313.16;5052872;28;20136;-82
2022/01/29 11:02:33;;;;;;;5.53;3.90;;;;;;;4.11;100.00;100296.34;5053895;28;20051;-83
2022/01/29 11:05:02;;;;;;;7.03;2.78;;;;;;;4.18;100.00;100310.19;5052961;28;20051;-82
2022/01/29 11:07:30;;;;;;;7.60;2.90;;;;;;;4.17;100.00;100289.63;5054245;28;20559;-83
2022/01/29 11:09:59;;;;;;;4.22;2.38;;;;;;;4.25;100.00;100290.75;5054115;28;20102;-83
2022/01/29 11:12:27;;;;;;;5.07;2.60;;;;;;;4.36;100.00;100299.88;5050335;28;20049;-83
2022/01/29 11:14:55;;;;;;;3.08;2.22;;;;;;;4.37;100.00;100285.44;5053616;28;20052;-82
2022/01/29 11:17:27;;;;;;;4.00;2.10;;;;;;;4.47;100.00;100289.13;5053229;28;20404;-83
2022/01/29 11:19:55;;;;;;;4.13;2.67;;;;;;;4.57;100.00;100286.59;5033837;28;20046;-83
2022/01/29 11:22:24;;;;;;;3.60;2.05;;;;;;;4.61;100.00;100288.06;5033770;28;20050;-83
2022/01/29 11:24:57;;;;;;;3.65;1.63;;;;;;;4.66;100.00;100291.25;5033860;28;20061;-83
2022/01/29 11:27:26;;;;;;;3.22;1.90;;;;;;;4.66;100.00;100280.47;5041569;28;20053;-83
2022/01/29 11:30:02;;;;;;;3.50;1.83;;;;;;;4.71;100.00;100286.38;5054711;28;20491;-83
2022/01/29 11:32:39;;;;;;;2.22;1.13;;;;;;;4.76;100.00;100288.72;5053904;28;20059;-83
2022/01/29 11:35:15;;;;;;;2.25;1.55;;;;;;;4.75;100.00;100265.44;5052773;28;20701;-83
2022/01/29 11:37:44;;;;;;;4.05;1.27;;;;;;;4.74;100.00;100263.72;5053287;28;20056;-82
2022/01/29 11:40:33;;;;;;;1.90;1.63;;;;;;;4.85;100.00;100269.13;5048595;28;20041;-82
2022/01/29 11:43:28;;;;;;;1.80;0.80;;;;;;;4.96;100.00;100276.34;5054684;28;20048;-83
2022/01/29 11:46:03;;;;;;;2.20;1.27;;;;;;;4.93;100.00;100271.22;5053914;28;20049;-83
2022/01/29 11:48:56;;;;;;;2.13;1.30;;;;;;;4.89;100.00;100264.34;5053941;28;20377;-82
2022/01/29 11:51:54;;;;;;;2.92;1.40;;;;;;;4.96;100.00;100252.94;5051083;28;20045;-82
2022/01/29 11:54:23;;;;;;;2.15;1.30;;;;;;;5.01;100.00;100270.59;5052631;28;20446;-83
2022/01/29 11:57:07;;;;;;;1.13;1.02;;;;;;;4.98;100.00;100252.81;5072506;28;20055;-82
2022/01/29 11:59:34;;;;;;;2.20;1.13;;;;;;;5.03;100.00;100256.03;5064794;28;20041;-83
2022/01/29 12:02:04;;;;;;;1.55;1.00;;;;;;;5.11;100.00;100258.09;5052408;28;20119;-82
2022/01/29 12:05:04;;;;;;;1.20;1.10;;;;;;;5.08;100.00;100258.34;5051353;28;20049;-83
2022/01/29 12:07:35;;;;;;;1.55;1.05;;;;;;;5.12;100.00;100252.59;5051177;28;20432;-83
2022/01/29 12:10:05;;;;;;;0.75;0.75;;;;;;;5.13;100.00;100251.63;5060601;28;20064;-83
2022/01/29 12:12:33;;;;;;;1.17;1.02;;;;;;;5.20;100.00;100262.75;5073053;28;20048;-83
2022/01/29 12:15:35;;;;;;;3.83;0.70;;;;;;;5.10;100.00;100246.47;5073091;28;20044;-83
2022/01/29 12:18:04;;;;;;;1.48;1.05;;;;;;;5.18;100.00;100236.88;5063738;28;20045;-82
2022/01/29 12:20:30;;;;;;;2.05;1.13;;;;;;;5.12;100.00;100222.09;5065271;28;20510;-83
2022/01/29 12:23:01;;;;;;;3.50;1.33;;;;;;;5.12;100.00;100220.25;5044808;28;20076;-83
2022/01/29 12:25:29;;;;;;;3.92;1.08;;;;;;;5.15;100.00;100227.22;5052928;28;20124;-83
2022/01/29 12:27:57;;;;;;;1.27;1.02;;;;;;;5.20;100.00;100221.47;5053166;28;20132;-83
2022/01/29 12:30:26;;;;;;;2.60;1.20;;;;;;;5.16;100.00;100220.00;5052925;28;20060;-83
2022/01/29 12:32:57;;;;;;;1.75;1.10;;;;;;;5.13;100.00;100203.09;5052299;28;20048;-83
2022/01/29 12:35:35;;;;;;;3.70;1.15;;;;;;;5.20;100.00;100208.00;5052518;28;20133;-83
2022/01/29 12:38:03;;;;;;;1.00;0.90;;;;;;;5.17;100.00;100200.16;5053203;28;20044;-83
2022/01/29 12:40:36;;;;;;;0.77;0.70;;;;;;;5.40;100.00;100201.78;5052468;28;20404;-83
2022/01/29 12:43:21;;;;;;;0.80;0.80;;;;;;;5.31;100.00;100195.34;5056427;28;20411;-83
2022/01/29 12:45:55;;;;;;;0.68;0.65;;;;;;;5.29;100.00;100178.41;5062282;28;20411;-83
2022/01/29 12:48:25;;;;;;;0.90;0.65;;;;;;;5.34;100.00;100185.28;5064812;28;20403;-84
2022/01/29 12:51:04;;;;;;;1.15;0.90;;;;;;;5.26;100.00;100161.66;5071056;28;20049;-83
2022/01/29 12:53:33;;;;;;;1.10;0.87;;;;;;;5.34;100.00;100167.25;5056855;28;20055;-83
2022/01/29 12:56:01;;;;;;;1.85;0.88;;;;;;;5.25;100.00;100158.06;5064834;28;20127;-83
2022/01/29 12:58:33;;;;;;;2.75;1.60;;;;;;;5.20;100.00;100157.63;5056187;28;20053;-84
2022/01/29 13:01:08;;;;;;;3.50;1.60;;;;;;;5.19;100.00;100133.47;5055623;28;20626;-83
2022/01/29 13:03:35;;;;;;;1.95;1.17;;;;;;;5.37;100.00;100141.88;5056117;28;20068;-83
2022/01/29 13:06:07;;;;;;;1.35;0.63;;;;;;;5.33;100.00;100144.00;5055253;28;20055;-83
2022/01/29 13:08:35;;;;;;;2.88;0.90;;;;;;;5.17;100.00;100121.97;5056335;28;20045;-83
2022/01/29 13:11:02;;;;;;;1.85;1.13;;;;;;;5.29;100.00;100132.59;5055555;28;20047;-83
2022/01/29 13:13:33;;;;;;;2.70;1.38;;;;;;;5.26;100.00;100126.59;5054739;28;20488;-83
2022/01/29 13:16:01;;;;;;;2.70;1.20;;;;;;;5.19;100.00;100112.75;5054059;28;20576;-83
2022/01/29 13:18:28;;;;;;;3.17;1.70;;;;;;;5.26;100.00;100115.81;5055024;28;20041;-83
2022/01/29 13:20:55;;;;;;;2.90;1.85;;;;;;;5.37;100.00;100114.91;5055079;28;20137;-84
2022/01/29 13:23:22;;;;;;;2.75;1.60;;;;;;;5.32;100.00;100104.50;5054887;28;20080;-83
2022/01/29 13:25:50;;;;;;;7.00;2.67;;;;;;;5.28;100.00;100106.63;5055622;28;20504;-84
2022/01/29 13:28:20;;;;;;;3.67;1.00;;;;;;;5.32;100.00;100116.16;5056837;28;20072;-84
2022/01/29 13:30:47;;;;;;;2.00;1.10;;;;;;;5.28;100.00;100103.94;5056045;28;20400;-86
2022/01/29 13:33:16;;;;;;;1.38;1.02;;;;;;;5.30;100.00;100093.00;5054739;28;20140;-85
2022/01/29 13:35:52;;;;;;;3.40;1.52;;;;;;;5.36;100.00;100103.28;5055328;28;20048;-84
2022/01/29 13:38:23;;;;;;;3.28;1.20;;;;;;;5.32;100.00;100097.28;5075237;28;20507;-84
2022/01/29 13:40:53;;;;;;;2.22;1.35;;;;;;;5.30;100.00;100101.94;5068513;28;20045;-84
2022/01/29 13:43:28;;;;;;;;;;;;;;;5.33;100.00;100108.94;5056080;28;20051;-82
2022/01/29 13:45:56;;;;;;;3.97;2.28;;;;;;;5.29;100.00;100107.47;5045731;28;20011;-84
2022/01/29 13:48:25;;;;;;;5.22;2.42;;;;;;;5.25;100.00;100092.53;5054770;28;20472;-84
2022/01/29 13:50:55;;;;;;;2.08;1.50;;;;;;;5.34;100.00;100109.78;5055059;28;20507;-84
2022/01/29 13:53:22;;;;;;;2.70;1.83;;;;;;;5.28;100.00;100090.44;5055029;28;20488;-84
2022/01/29 13:56:05;;;;;;;2.47;1.42;;;;;;;5.31;100.00;100089.31;5055174;28;20049;-84
2022/01/29 13:58:49;;;;;;;2.55;1.45;;;;;;;5.23;100.00;100075.63;5053201;28;20045;-84
2022/01/29 14:01:32;;;;;;;3.25;2.20;;;;;;;5.26;100.00;100084.31;5046748;28;20148;-84
2022/01/29 14:04:03;;;;;;;3.92;2.40;;;;;;;5.25;100.00;100096.06;5053007;28;20563;-84
2022/01/29 14:06:37;;;;;;;5.75;2.58;;;;;;;5.18;100.00;100075.16;5052255;28;20102;-84
2022/01/29 14:09:20;;;;;;;3.40;2.20;;;;;;;5.13;100.00;100079.09;5053865;28;20049;-83
2022/01/29 14:12:13;;;;;;;2.88;1.98;;;;;;;5.00;100.00;100066.75;5035887;28;20063;-84
2022/01/29 14:14:46;;;;;;;5.10;3.03;;;;;;;5.06;100.00;100059.03;5065274;28;20051;-84
2022/01/29 14:17:25;;;;;;;4.70;2.05;;;;;;;5.02;100.00;100059.41;5049856;28;20538;-83
2022/01/29 14:19:54;;;;;;;2.83;1.55;;;;;;;5.04;100.00;100062.81;5044065;28;20053;-84
2022/01/29 14:22:22;;;;;;;4.20;2.70;;;;;;;5.03;100.00;100061.97;5053737;28;20481;-84
2022/01/29 14:24:49;;;;;;;3.03;2.08;;;;;;;5.09;100.00;100050.69;5054375;28;20319;-84
2022/01/29 14:27:16;;;;;;;3.17;1.73;;;;;;;5.04;100.00;100017.84;5054922;28;20517;-83
2022/01/29 14:29:48;;;;;;;2.28;1.50;;;;;;;5.19;100.00;100039.97;5054666;28;20546;-84
2022/01/29 14:32:17;;;;;;;4.55;2.13;;;;;;;5.11;100.00;100029.00;5054967;28;20053;-84
2022/01/29 14:34:45;;;;;;;6.28;2.28;;;;;;;5.13;100.00;100027.88;5054584;28;20048;-84
2022/01/29 14:37:13;;;;;;;5.93;2.38;;;;;;;5.19;100.00;100023.78;5054605;28;20044;-84
2022/01/29 14:39:40;;;;;;;3.17;2.00;;;;;;;5.08;100.00;100005.84;5051944;28;20051;-84
2022/01/29 14:42:13;;;;;;;4.10;2.28;;;;;;;5.19;100.00;100017.56;5055158;28;20056;-84
2022/01/29 14:44:43;;;;;;;3.25;2.10;;;;;;;5.19;100.00;100021.09;5054498;28;20140;-84
2022/01/29 14:47:13;;;;;;;3.40;2.10;;;;;;;5.21;100.00;100023.66;5052606;28;20550;-84
2022/01/29 14:49:41;;;;;;;2.50;1.80;;;;;;;5.10;100.00;100011.97;5054612;28;20048;-84
2022/01/29 14:52:08;;;;;;;4.20;2.08;;;;;;;5.18;100.00;100032.88;5051683;28;20044;-84
2022/01/29 14:54:36;;;;;;;4.07;1.88;;;;;;;5.16;100.00;100044.78;5052763;28;20075;-84
2022/01/29 14:57:04;;;;;;;1.90;1.38;;;;;;;5.08;100.00;100018.47;5053232;28;20064;-84
2022/01/29 14:59:31;;;;;;;7.68;2.80;;;;;;;5.15;100.00;100035.84;5053013;28;20132;-84
2022/01/29 15:01:58;;;;;;;3.22;1.73;;;;;;;5.15;100.00;100035.84;5051763;28;20420;-84
2022/01/29 15:04:33;;;;;;;7.25;2.35;;;;;;;5.21;100.00;100045.22;5051720;28;20126;-85
2022/01/29 15:07:03;;;;;;;5.50;2.00;;;;;;;5.22;100.00;100046.94;5052310;28;20049;-85
2022/01/29 15:09:30;;;;;;;5.70;2.40;;;;;;;5.20;100.00;100039.00;5052837;28;20147;-85
2022/01/29 15:11:57;;;;;;;5.93;2.78;;;;;;;5.19;100.00;100037.28;5053398;28;20048;-87
2022/01/29 15:14:24;;;;;;;7.85;3.00;;;;;;;5.30;100.00;100058.81;5053979;28;20453;-84
2022/01/29 15:16:52;;;;;;;6.13;2.10;;;;;;;5.38;100.00;100055.47;5054045;28;20062;-86
2022/01/29 15:19:19;;;;;;;2.58;1.30;;;;;;;5.48;100.00;100039.38;5053527;28;20056;-84
2022/01/29 15:21:47;;;;;;;4.75;1.20;;;;;;;5.72;100.00;100049.91;5053667;28;20056;-85
2022/01/29 15:24:14;;;;;;;1.92;1.20;;;;;;;5.79;100.00;100063.72;5052815;28;20049;-84
2022/01/29 15:26:41;;;;;;;2.65;0.98;;;;;;;5.75;100.00;100062.25;5052471;28;20045;-84
2022/01/29 15:29:08;;;;;;;3.67;1.13;;;;;;;5.79;100.00;100047.50;5051507;28;20049;-84
2022/01/29 15:31:35;;;;;;;0.63;0.60;;;;;;;5.73;100.00;100046.19;5054089;28;20073;-84
2022/01/29 15:34:02;;;;;;;1.23;0.82;;;;;;;5.72;100.00;100043.63;5052227;28;20053;-83
2022/01/29 15:36:29;;;;;;;1.55;0.77;;;;;;;5.71;100.00;100060.81;5052253;28;20079;-83
2022/01/29 15:38:57;;;;;;;1.02;0.70;;;;;;;5.70;100.00;100054.56;5052092;28;20071;-83
2022/01/29 15:41:24;;;;;;;2.38;0.98;;;;;;;5.66;100.00;100077.38;5058836;28;20131;-84
2022/01/29 15:43:50;;;;;;;1.80;1.13;;;;;;;5.61;100.00;100066.97;5051643;28;20053;-84
2022/01/29 15:46:17;;;;;;;1.48;0.70;;;;;;;5.61;100.00;100071.53;5052315;28;20136;-83
2022/01/29 15:48:44;;;;;;;0.57;0.57;;;;;;;5.57;100.00;100046.66;5050415;28;20457;-83
2022/01/29 15:51:11;;;;;;;0.73;0.73;;;;;;;5.69;100.00;100071.75;5044463;28;20048;-84
2022/01/29 15:53:37;;;;;;;2.45;1.50;;;;;;;5.65;100.00;100054.94;5051626;28;20473;-85
2022/01/29 15:56:10;;;;;;;2.25;1.00;;;;;;;5.64;100.00;100047.00;5067562;28;20105;-84
2022/01/29 15:58:37;;;;;;;0.95;0.77;;;;;;;5.67;100.00;100044.03;5053247;28;20041;-83
2022/01/29 16:01:04;;;;;;;0.80;0.80;;;;;;;5.56;100.00;100014.44;5053093;28;20067;-83
2022/01/29 16:03:30;;;;;;;0.45;0.40;;;;;;;5.59;100.00;100023.09;5052829;28;20144;-83
2022/01/29 16:06:00;;;;;;;0.70;0.60;;;;;;;5.62;100.00;100025.53;5053184;28;20060;-84
2022/01/29 16:08:31;;;;;;;1.15;0.80;;;;;;;5.62;100.00;100030.09;5052863;28;20045;-83
2022/01/29 16:11:02;;;;;;;0.98;0.60;;;;;;;5.62;100.00;100028.25;5069544;28;20048;-84
2022/01/29 16:14:11;;;;;;;0.70;0.50;;;;;;;5.70;100.00;100038.38;5064205;28;20088;-83
2022/01/29 16:16:45;;;;;;;0.65;0.65;;;;;;;5.68;100.00;100029.56;5038229;28;20080;-84
2022/01/29 16:19:12;;;;;;;2.45;0.70;;;;;;;5.65;100.00;100029.81;5054607;28;20155;-83
2022/01/29 16:21:39;;;;;;;0.60;0.60;;;;;;;5.71;100.00;100028.44;5055748;28;20095;-83
2022/01/29 16:24:14;;;;;;;1.02;0.60;;;;;;;5.74;100.00;100033.56;5053307;28;20055;-83
2022/01/29 16:26:42;;;;;;;0.50;0.50;;;;;;;5.75;100.00;100022.66;5056168;28;20052;-83
2022/01/29 16:29:12;;;;;;;0.55;0.52;;;;;;;5.67;100.00;100015.22;5051918;28;20124;-84
2022/01/29 16:31:39;;;;;;;1.15;0.50;;;;;;;5.79;100.00;100047.50;5054932;28;20122;-83
2022/01/29 16:34:06;;;;;;;0.82;0.60;;;;;;;5.68;100.00;100041.19;5036229;28;20057;-83
2022/01/29 16:36:37;;;;;;;0.60;0.60;;;;;;;5.63;100.00;100007.50;5054708;28;20063;-84
2022/01/29 16:39:07;;;;;;;1.23;0.70;;;;;;;5.74;100.00;100015.53;5053850;28;20093;-83
2022/01/29 16:41:36;;;;;;;0.77;0.70;;;;;;;5.61;100.00;100006.78;5052088;28;20667;-83
2022/01/29 16:44:03;;;;;;;0.55;0.55;;;;;;;5.67;100.00;100022.44;5054262;28;20095;-83
2022/01/29 16:46:34;;;;;;;1.83;0.70;;;;;;;5.65;100.00;100010.94;5054853;28;20076;-83
2022/01/29 16:49:01;;;;;;;0.75;0.60;;;;;;;5.61;100.00;100004.09;5054841;28;20146;-83
2022/01/29 16:51:28;;;;;;;2.75;0.80;;;;;;;5.64;100.00;100001.13;5054246;28;20130;-83
2022/01/29 16:53:57;;;;;;;2.15;0.95;;;;;;;5.66;100.00;100013.50;5054406;28;20055;-84
2022/01/29 16:56:23;;;;;;;1.50;0.98;;;;;;;5.80;100.00;100019.56;5054753;28;20053;-83
2022/01/29 16:58:50;;;;;;;2.03;1.70;;;;;;;5.72;100.00;100011.25;5054413;28;20076;-83
2022/01/29 17:01:18;;;;;;;4.70;2.03;;;;;;;5.81;100.00;100015.84;5054494;28;20053;-83
2022/01/29 17:03:50;;;;;;;2.08;1.13;;;;;;;5.79;100.00;100004.34;5054033;28;20496;-83
2022/01/29 17:06:17;;;;;;;1.45;0.85;;;;;;;5.81;100.00;99999.66;5054645;28;20053;-83
2022/01/29 17:08:44;;;;;;;10.93;4.55;;;;;;;5.89;100.00;100020.59;5054328;28;20059;-82
2022/01/29 17:11:11;;;;;;;6.30;2.92;;;;;;;5.92;100.00;100023.88;5054624;28;20079;-83
2022/01/29 17:13:42;;;;;;;3.10;1.20;;;;;;;5.85;100.00;99995.72;5054664;28;20135;-83
2022/01/29 17:16:11;;;;;;;4.00;1.63;;;;;;;5.94;100.00;100018.34;5054701;28;20053;-83
2022/01/29 17:18:38;;;;;;;1.33;0.90;;;;;;;5.85;100.00;100001.09;5053988;28;20560;-82
2022/01/29 17:21:06;;;;;;;1.25;1.00;;;;;;;5.91;100.00;100011.34;5054510;28;20400;-81
2022/01/29 17:23:33;;;;;;;1.67;0.90;;;;;;;5.81;100.00;100002.34;5053502;28;20087;-82
2022/01/29 17:26:01;;;;;;;2.17;0.88;;;;;;;5.93;100.00;99997.72;5054241;28;20142;-82
2022/01/29 17:28:29;;;;;;;1.58;1.02;;;;;;;5.90;100.00;100009.66;5053947;28;20049;-82
2022/01/29 17:30:57;;;;;;;1.88;1.10;;;;;;;5.78;100.00;99999.91;5054094;28;20045;-82
2022/01/29 17:33:24;;;;;;;1.67;0.82;;;;;;;5.79;100.00;99999.78;5053328;28;20049;-82
2022/01/29 17:35:54;;;;;;;0.80;0.60;;;;;;;5.83;100.00;100001.25;5052229;28;20049;-81
2022/01/29 17:38:22;;;;;;;1.50;0.80;;;;;;;5.84;100.00;100016.44;5054123;28;20045;-81
2022/01/29 17:40:49;;;;;;;1.77;0.63;;;;;;;5.80;100.00;100019.56;5053580;28;20488;-81
2022/01/29 17:43:18;;;;;;;1.45;1.10;;;;;;;5.78;100.00;99999.91;5053773;28;20127;-82
2022/01/29 17:45:47;;;;;;;1.58;1.13;;;;;;;5.75;100.00;100006.47;5054154;28;20102;-81
2022/01/29 17:48:17;;;;;;;2.30;0.80;;;;;;;5.83;100.00;100024.69;5052113;28;20059;-82
2022/01/29 17:50:43;;;;;;;;;;;;;;;5.87;100.00;100027.97;5056364;28;20080;-88
2022/01/29 17:53:13;;;;;;;1.13;0.60;;;;;;;5.91;100.00;100032.94;5053771;28;19935;-82
2022/01/29 17:55:42;;;;;;;1.15;0.73;;;;;;;5.84;100.00;100027.25;5057490;28;20059;-82
2022/01/29 18:01:04;;;;;;;1.10;0.95;;;;;;;5.85;100.00;100031.63;5062631;28;20439;-81
2022/01/29 18:03:35;;;;;;;1.75;1.40;;;;;;;5.78;100.00;100033.19;5065055;28;20045;-82
2022/01/29 18:06:05;;;;;;;2.78;1.67;;;;;;;5.88;100.00;100041.31;5051901;28;20059;-82
2022/01/29 18:08:35;;;;;;;0.80;0.80;;;;;;;5.76;100.00;100016.25;5055027;28;20118;-82
2022/01/29 18:11:03;;;;;;;2.75;1.52;;;;;;;5.86;100.00;100037.91;5054521;28;20041;-82
2022/01/29 18:13:32;;;;;;;0.70;0.70;;;;;;;5.79;100.00;100015.13;5053423;28;20049;-82
2022/01/29 18:16:01;;;;;;;1.25;1.15;;;;;;;5.83;100.00;100016.59;5052940;28;20056;-81
2022/01/29 18:18:28;;;;;;;0.57;0.57;;;;;;;5.90;100.00;100025.00;5056041;28;20041;-82
2022/01/29 18:20:57;;;;;;;1.77;0.80;;;;;;;5.89;100.00;100034.09;5054205;28;20045;-82
2022/01/29 18:23:29;;;;;;;0.38;0.35;;;;;;;5.88;100.00;100033.22;5051137;28;20078;-82
2022/01/29 18:26:03;;;;;;;0.57;0.57;;;;;;;5.89;100.00;100024.16;5053184;28;20135;-83
2022/01/29 18:28:39;;;;;;;1.02;0.77;;;;;;;5.92;100.00;100036.53;5053438;28;20056;-82
2022/01/29 18:31:06;;;;;;;0.90;0.90;;;;;;;5.92;100.00;100023.88;5033033;28;20099;-81
2022/01/29 18:33:38;;;;;;;0.50;0.50;;;;;;;6.06;100.00;100032.66;5050894;28;20041;-83
2022/01/29 18:36:06;;;;;;;1.05;0.70;;;;;;;5.94;100.00;100002.16;5052775;28;20053;-82
2022/01/29 18:38:37;;;;;;;1.38;0.90;;;;;;;5.92;100.00;99985.25;5050078;28;20048;-82
2022/01/29 18:41:04;;;;;;;0.80;0.70;;;;;;;6.04;100.00;100016.59;5032685;28;20493;-83
2022/01/29 18:43:35;;;;;;;1.33;0.90;;;;;;;6.00;100.00;100021.38;5051248;28;20056;-83
2022/01/29 18:46:08;;;;;;;0.60;0.55;;;;;;;5.96;100.00;100000.16;5052921;28;20064;-83
2022/01/29 18:48:35;;;;;;;0.93;0.70;;;;;;;5.90;100.00;99993.47;5046780;28;20086;-86
2022/01/29 18:51:07;;;;;;;1.65;1.00;;;;;;;5.88;100.00;99997.28;5052283;28;20468;-82
2022/01/29 18:53:47;;;;;;;1.67;0.80;;;;;;;5.90;100.00;99982.69;5051492;28;20049;-82
2022/01/29 18:56:21;;;;;;;1.00;0.93;;;;;;;5.85;100.00;99982.22;5051188;28;20118;-82
2022/01/29 18:59:02;;;;;;;1.17;0.82;;;;;;;5.92;100.00;99990.66;5052092;28;20404;-82
2022/01/29 19:01:41;;;;;;;0.82;0.70;;;;;;;5.95;100.00;99988.53;5052373;28;20052;-83
2022/01/29 19:04:08;;;;;;;1.13;0.70;;;;;;;5.93;100.00;99985.13;5051982;28;20084;-83
2022/01/29 19:06:35;;;;;;;0.60;0.60;;;;;;;5.94;100.00;99978.69;5053210;28;20100;-82
2022/01/29 19:09:02;;;;;;;0.40;0.40;;;;;;;5.85;100.00;99960.63;5071869;28;20136;-81
2022/01/29 19:11:29;;;;;;;0.70;0.50;;;;;;;5.92;100.00;99975.28;5072148;28;20048;-82
2022/01/29 19:13:59;;;;;;;2.65;1.58;;;;;;;5.83;100.00;99968.00;5056280;28;20041;-82
2022/01/29 19:16:26;;;;;;;5.63;0.98;;;;;;;5.89;100.00;99980.13;5052603;28;20076;-80
2022/01/29 19:18:54;;;;;;;0.88;0.70;;;;;;;5.79;100.00;99961.16;5050876;28;20067;-83
2022/01/29 19:21:23;;;;;;;2.75;0.88;;;;;;;5.90;100.00;99979.13;5052168;28;20045;-83
2022/01/29 19:23:50;;;;;;;0.77;0.70;;;;;;;5.84;100.00;99978.66;5050959;28;20106;-82
2022/01/29 19:26:17;;;;;;;1.65;0.70;;;;;;;5.90;100.00;99988.09;5051830;28;20127;-83
2022/01/29 19:28:44;;;;;;;2.58;1.13;;;;;;;5.85;100.00;99968.72;5051738;28;20066;-82
2022/01/29 19:31:11;;;;;;;1.52;0.70;;;;;;;5.82;100.00;99948.25;5052076;28;20040;-82
2022/01/29 19:33:41;;;;;;;1.17;0.77;;;;;;;5.84;100.00;99953.50;5059832;28;20045;-84
2022/01/29 19:36:15;;;;;;;;;;;;;;;5.96;100.00;99965.94;5056182;28;20048;-83